Time;durP1;ratioP1;P1;durP2;ratioP2;P2;SDS_P1;SDS_P2;PMS_P1;PMS_P2;Temp;Humidity;BMP_temperature;BMP_pressure;BME280_temperature;BME280_humidity;BME280_pressure;Samples;Min_cycle;Max_cycle;Signal;HPM_P1;HPM_P2
2022/04/07 00:02:18;;;;;;;;;;;15.10;57.10;;;;;;5100173;28;19908;-67
2022/04/07 00:04:44;;;;;;;;;;;15.00;57.10;;;;;;5100056;28;20096;-67
2022/04/07 00:07:09;;;;;;;;;;;15.10;57.10;;;;;;5100121;28;20218;-66
2022/04/07 00:09:35;;;;;;;;;;;15.10;57.00;;;;;;5099954;28;19908;-66
2022/04/07 00:12:00;;;;;;;;;;;15.10;57.10;;;;;;5100010;28;19947;-67
2022/04/07 00:14:26;;;;;;;;;;;15.10;57.00;;;;;;5099904;28;19914;-67
2022/04/07 00:16:51;;;;;;;;;;;15.10;57.10;;;;;;5099910;28;20184;-67
2022/04/07 00:19:17;;;;;;;;;;;15.00;57.10;;;;;;5099909;28;19915;-67
2022/04/07 00:21:46;;;;;;;;;;;15.00;57.10;;;;;;5099902;28;19908;-67
2022/04/07 00:24:12;;;;;;;;;;;15.00;57.10;;;;;;5099942;28;20382;-67
2022/04/07 00:26:37;;;;;;;;;;;15.00;57.00;;;;;;5099907;28;19992;-67
2022/04/07 00:29:03;;;;;;;;;;;15.00;57.10;;;;;;5099830;28;19908;-66
2022/04/07 00:31:38;;;;;;;;;;;15.00;57.10;;;;;;5099874;28;19923;-67
2022/04/07 00:34:04;;;;;;;;;;;15.10;57.10;;;;;;5099875;28;19914;-67
2022/04/07 00:36:30;;;;;;;;;;;15.00;57.10;;;;;;5101100;28;19951;-66
2022/04/07 00:38:55;;;;;;;;;;;15.00;57.00;;;;;;5103834;28;19911;-68
2022/04/07 00:41:21;;;;;;;;;;;15.00;57.00;;;;;;5103776;28;19908;-67
2022/04/07 00:43:49;;;;;;;;;;;15.00;57.10;;;;;;5103831;28;20207;-67
2022/04/07 00:46:14;;;;;;;;;;;15.00;57.00;;;;;;5103601;28;20261;-67
2022/04/07 00:48:40;;;;;;;;;;;15.10;57.00;;;;;;5103746;28;19908;-67
2022/04/07 00:51:06;;;;;;;;;;;15.00;57.00;;;;;;5103654;28;19958;-67
2022/04/07 00:53:31;;;;;;;;;;;15.00;57.00;;;;;;5103594;28;19900;-67
2022/04/07 00:56:00;;;;;;;;;;;15.10;57.00;;;;;;5103471;28;19958;-66
2022/04/07 00:58:27;;;;;;;;;;;15.00;57.00;;;;;;5103453;28;19915;-67
2022/04/07 01:00:52;;;;;;;;;;;15.00;57.00;;;;;;5103489;28;19993;-67
2022/04/07 01:03:18;;;;;;;;;;;15.00;57.00;;;;;;5103388;28;20328;-67
2022/04/07 01:05:43;;;;;;;;;;;15.00;57.10;;;;;;5103432;28;19915;-66
2022/04/07 01:08:09;;;;;;;;;;;15.00;57.00;;;;;;5103271;28;19907;-66
2022/04/07 01:10:34;;;;;;;;;;;15.00;57.00;;;;;;5103297;28;20098;-67
2022/04/07 01:13:00;;;;;;;;;;;15.00;57.00;;;;;;5103227;28;19915;-67
2022/04/07 01:15:26;;;;;;;;;;;15.00;57.00;;;;;;5103084;28;20347;-67
2022/04/07 01:17:51;;;;;;;;;;;15.00;57.00;;;;;;5103129;28;19904;-67
2022/04/07 01:20:17;;;;;;;;;;;15.00;57.00;;;;;;5103077;28;19908;-67
2022/04/07 01:22:44;;;;;;;;;;;15.00;57.00;;;;;;5103053;28;19908;-68
2022/04/07 01:25:10;;;;;;;;;;;15.00;57.10;;;;;;5101751;28;19915;-66
2022/04/07 01:27:36;;;;;;;;;;;15.00;57.10;;;;;;5102947;28;19946;-66
2022/04/07 01:30:06;;;;;;;;;;;15.00;57.10;;;;;;5102932;28;19900;-67
2022/04/07 01:32:49;;;;;;;;;;;15.00;57.10;;;;;;5102914;28;19912;-67
2022/04/07 01:35:15;;;;;;;;;;;15.00;57.00;;;;;;5102732;28;19912;-67
2022/04/07 01:37:42;;;;;;;;;;;15.00;57.00;;;;;;5102792;28;19914;-67
2022/04/07 01:40:09;;;;;;;;;;;15.00;57.00;;;;;;5102714;28;19900;-66
2022/04/07 01:42:35;;;;;;;;;;;15.00;57.00;;;;;;5102655;28;19908;-67
2022/04/07 01:45:02;;;;;;;;;;;15.00;57.00;;;;;;5102670;28;19908;-66
2022/04/07 01:47:28;;;;;;;;;;;15.00;57.00;;;;;;5101482;28;19955;-67
2022/04/07 01:50:04;;;;;;;;;;;15.00;57.00;;;;;;5102227;28;19944;-67
2022/04/07 01:52:30;;;;;;;;;;;15.00;57.00;;;;;;5102495;28;19908;-67
2022/04/07 01:54:58;;;;;;;;;;;15.00;57.00;;;;;;5102332;28;19908;-67
2022/04/07 01:57:24;;;;;;;;;;;15.00;57.00;;;;;;5102368;28;19914;-67
2022/04/07 01:59:51;;;;;;;;;;;15.00;57.00;;;;;;5102311;28;19908;-66
2022/04/07 02:02:17;;;;;;;;;;;14.90;57.00;;;;;;5102322;28;20211;-66
2022/04/07 02:04:52;;;;;;;;;;;15.00;56.90;;;;;;5102213;28;19908;-67
2022/04/07 02:07:18;;;;;;;;;;;15.00;56.90;;;;;;5102190;28;19908;-66
2022/04/07 02:09:43;;;;;;;;;;;14.90;56.90;;;;;;5102156;28;19907;-67
2022/04/07 02:12:09;;;;;;;;;;;15.00;56.90;;;;;;5102101;28;19982;-67
2022/04/07 02:14:35;;;;;;;;;;;14.90;56.90;;;;;;5102024;28;19915;-67
2022/04/07 02:17:01;;;;;;;;;;;15.00;56.90;;;;;;5101990;28;19919;-67
2022/04/07 02:19:27;;;;;;;;;;;15.00;57.00;;;;;;5101918;28;19950;-67
2022/04/07 02:21:53;;;;;;;;;;;14.90;56.90;;;;;;5101934;28;19908;-67
2022/04/07 02:24:18;;;;;;;;;;;15.00;56.90;;;;;;5101805;28;19949;-67
2022/04/07 02:26:44;;;;;;;;;;;15.00;56.80;;;;;;5101778;28;19908;-66
2022/04/07 02:29:09;;;;;;;;;;;15.00;56.80;;;;;;5101786;28;19915;-67
2022/04/07 02:31:35;;;;;;;;;;;15.00;56.90;;;;;;5101738;28;19915;-67
2022/04/07 02:34:00;;;;;;;;;;;15.00;56.90;;;;;;5101713;28;20250;-66
2022/04/07 02:36:26;;;;;;;;;;;14.90;56.80;;;;;;5101478;28;19934;-67
2022/04/07 02:38:51;;;;;;;;;;;14.90;56.90;;;;;;5100317;28;19907;-67
2022/04/07 02:41:17;;;;;;;;;;;14.90;57.00;;;;;;5101511;28;19915;-66
2022/04/07 02:43:43;;;;;;;;;;;14.90;56.90;;;;;;5101439;28;19994;-66
2022/04/07 02:46:10;;;;;;;;;;;14.90;56.90;;;;;;5101303;28;19922;-66
2022/04/07 02:48:36;;;;;;;;;;;14.90;56.80;;;;;;5101402;28;19915;-67
2022/04/07 02:51:02;;;;;;;;;;;14.90;56.90;;;;;;5101377;28;20330;-67
2022/04/07 02:53:28;;;;;;;;;;;14.90;56.90;;;;;;5101303;28;20167;-67
2022/04/07 02:55:53;;;;;;;;;;;14.90;56.80;;;;;;5101200;28;19912;-67
2022/04/07 02:58:19;;;;;;;;;;;14.90;56.90;;;;;;5101128;28;19982;-66
2022/04/07 03:00:44;;;;;;;;;;;14.90;56.80;;;;;;5100743;28;19908;-67
2022/04/07 03:03:10;;;;;;;;;;;14.90;56.80;;;;;;5101117;28;20142;-66
2022/04/07 03:05:36;;;;;;;;;;;14.90;57.40;;;;;;5099788;28;19908;-67
2022/04/07 03:08:02;;;;;;;;;;;14.90;56.70;;;;;;5101047;28;19907;-67
2022/04/07 03:10:27;;;;;;;;;;;14.90;56.70;;;;;;5101004;28;19908;-68
2022/04/07 03:12:53;;;;;;;;;;;14.90;56.80;;;;;;5100933;28;19908;-67
2022/04/07 03:15:18;;;;;;;;;;;14.90;56.90;;;;;;5100813;28;19912;-68
2022/04/07 03:17:44;;;;;;;;;;;14.90;56.90;;;;;;5100859;28;20192;-67
2022/04/07 03:20:09;;;;;;;;;;;14.90;56.90;;;;;;5100908;28;19915;-66
2022/04/07 03:22:35;;;;;;;;;;;14.90;56.90;;;;;;5100755;28;19908;-67
2022/04/07 03:25:01;;;;;;;;;;;14.90;56.80;;;;;;5100715;28;19907;-67
2022/04/07 03:27:26;;;;;;;;;;;14.90;56.80;;;;;;5100683;28;19907;-67
2022/04/07 03:29:52;;;;;;;;;;;14.90;56.80;;;;;;5100673;28;19949;-67
2022/04/07 03:32:17;;;;;;;;;;;14.90;56.80;;;;;;5100637;28;19908;-67
2022/04/07 03:34:43;;;;;;;;;;;14.90;56.70;;;;;;5100495;28;19908;-67
2022/04/07 03:37:08;;;;;;;;;;;14.90;56.70;;;;;;5100535;28;19978;-67
2022/04/07 03:39:34;;;;;;;;;;;14.90;56.70;;;;;;5100120;28;19915;-67
2022/04/07 03:42:00;;;;;;;;;;;14.90;56.70;;;;;;5100518;28;19908;-66
2022/04/07 03:44:25;;;;;;;;;;;14.90;56.60;;;;;;5100392;28;19919;-66
2022/04/07 03:46:51;;;;;;;;;;;14.90;56.60;;;;;;5100253;28;19965;-67
2022/04/07 03:49:17;;;;;;;;;;;14.90;56.60;;;;;;5100345;28;19935;-67
2022/04/07 03:51:43;;;;;;;;;;;14.90;56.70;;;;;;5100209;28;19992;-66
2022/04/07 03:54:09;;;;;;;;;;;14.90;56.70;;;;;;5100528;28;19908;-67
2022/04/07 03:56:34;;;;;;;;;;;14.90;56.70;;;;;;5100204;28;20256;-67
2022/04/07 03:59:00;;;;;;;;;;;14.90;56.70;;;;;;5100221;28;19983;-68
2022/04/07 04:01:26;;;;;;;;;;;14.90;56.70;;;;;;5100108;28;19915;-67
2022/04/07 04:03:52;;;;;;;;;;;14.90;56.70;;;;;;5100196;28;19907;-67
2022/04/07 04:06:17;;;;;;;;;;;14.90;56.60;;;;;;5100124;28;19910;-67
2022/04/07 04:08:43;;;;;;;;;;;14.90;56.60;;;;;;5100120;28;19908;-66
2022/04/07 04:11:08;;;;;;;;;;;14.90;56.70;;;;;;5099267;28;19943;-67
2022/04/07 04:13:34;;;;;;;;;;;14.90;57.30;;;;;;5100066;28;20188;-67
2022/04/07 04:16:01;;;;;;;;;;;14.90;56.70;;;;;;5099878;28;19919;-66
2022/04/07 04:18:27;;;;;;;;;;;14.80;56.60;;;;;;5100011;28;19957;-67
2022/04/07 04:20:52;;;;;;;;;;;14.80;56.70;;;;;;5099942;28;19912;-67
2022/04/07 04:23:18;;;;;;;;;;;14.80;56.70;;;;;;5100013;28;19907;-66
2022/04/07 04:25:43;;;;;;;;;;;14.90;56.70;;;;;;5098622;28;19937;-66
2022/04/07 04:28:09;;;;;;;;;;;14.80;56.60;;;;;;5099874;28;19915;-66
2022/04/07 04:30:35;;;;;;;;;;;14.80;56.60;;;;;;5099897;28;19908;-67
2022/04/07 04:33:04;;;;;;;;;;;14.80;56.70;;;;;;5099971;28;19915;-67
2022/04/07 04:35:29;;;;;;;;;;;14.80;56.70;;;;;;5099764;28;19934;-67
2022/04/07 04:37:55;;;;;;;;;;;14.80;56.60;;;;;;5099779;28;19908;-66
2022/04/07 04:40:21;;;;;;;;;;;14.80;56.60;;;;;;5099830;28;19975;-67
2022/04/07 04:42:46;;;;;;;;;;;14.80;56.60;;;;;;5099827;28;19908;-66
2022/04/07 04:45:12;;;;;;;;;;;14.80;56.60;;;;;;5099742;28;20107;-66
2022/04/07 04:47:38;;;;;;;;;;;14.80;56.50;;;;;;5099691;28;19945;-67
2022/04/07 04:50:05;;;;;;;;;;;14.80;56.60;;;;;;5099719;28;19912;-67
2022/04/07 04:52:30;;;;;;;;;;;14.80;56.60;;;;;;5099682;28;20112;-67
2022/04/07 04:54:56;;;;;;;;;;;14.80;56.60;;;;;;5099539;28;19915;-67
2022/04/07 04:57:21;;;;;;;;;;;14.80;56.60;;;;;;5099705;28;20211;-67
2022/04/07 04:59:47;;;;;;;;;;;14.80;56.50;;;;;;5098319;28;19908;-67
2022/04/07 05:02:12;;;;;;;;;;;14.80;56.50;;;;;;5099632;28;19949;-67
2022/04/07 05:04:38;;;;;;;;;;;14.80;56.50;;;;;;5099565;28;19961;-66
2022/04/07 05:07:04;;;;;;;;;;;14.80;56.50;;;;;;5099626;28;20199;-67
2022/04/07 05:09:30;;;;;;;;;;;14.80;56.60;;;;;;5099565;28;19908;-67
2022/04/07 05:11:56;;;;;;;;;;;14.80;56.60;;;;;;5099485;28;19946;-67
2022/04/07 05:14:21;;;;;;;;;;;14.80;56.50;;;;;;5099490;28;19941;-67
2022/04/07 05:16:47;;;;;;;;;;;14.80;56.60;;;;;;5099418;28;20108;-67
2022/04/07 05:19:12;;;;;;;;;;;14.80;56.60;;;;;;5099515;28;20103;-67
2022/04/07 05:21:38;;;;;;;;;;;14.80;56.60;;;;;;5099476;28;19908;-67
2022/04/07 05:24:03;;;;;;;;;;;14.80;56.50;;;;;;5102922;28;19914;-67
2022/04/07 05:26:29;;;;;;;;;;;14.80;56.60;;;;;;5102961;28;19943;-66
2022/04/07 05:28:54;;;;;;;;;;;14.80;56.50;;;;;;5103011;28;19908;-67
2022/04/07 05:31:20;;;;;;;;;;;14.80;56.60;;;;;;5103002;28;20473;-66
2022/04/07 05:33:45;;;;;;;;;;;14.80;56.60;;;;;;5102909;28;20240;-68
2022/04/07 05:36:11;;;;;;;;;;;14.80;56.50;;;;;;5102817;28;19903;-67
2022/04/07 05:38:36;;;;;;;;;;;14.80;56.50;;;;;;5102830;28;19970;-67
2022/04/07 05:41:02;;;;;;;;;;;14.80;56.50;;;;;;5102784;28;19908;-67
2022/04/07 05:43:28;;;;;;;;;;;14.80;56.60;;;;;;5102789;28;20440;-67
2022/04/07 05:45:54;;;;;;;;;;;14.80;56.50;;;;;;5102530;28;19933;-67
2022/04/07 05:48:19;;;;;;;;;;;14.80;56.50;;;;;;5102661;28;19914;-67
2022/04/07 05:50:45;;;;;;;;;;;14.80;56.50;;;;;;5102634;28;20105;-67
2022/04/07 05:53:11;;;;;;;;;;;14.80;56.50;;;;;;5102576;28;19908;-67
2022/04/07 05:55:37;;;;;;;;;;;14.80;56.50;;;;;;5102435;28;20212;-66
2022/04/07 05:58:10;;;;;;;;;;;14.80;56.50;;;;;;5102496;28;19908;-66
2022/04/07 06:00:37;;;;;;;;;;;14.80;56.40;;;;;;5102629;28;20085;-67
2022/04/07 06:03:03;;;;;;;;;;;14.80;56.40;;;;;;5102355;28;20205;-67
2022/04/07 06:05:29;;;;;;;;;;;14.80;56.40;;;;;;5102346;28;19950;-66
2022/04/07 06:07:58;;;;;;;;;;;14.80;56.40;;;;;;5102297;28;19908;-67
2022/04/07 06:10:23;;;;;;;;;;;14.80;56.50;;;;;;5102193;28;20183;-67
2022/04/07 06:12:49;;;;;;;;;;;14.80;56.50;;;;;;5102153;28;19907;-67
2022/04/07 06:15:15;;;;;;;;;;;14.80;56.50;;;;;;5101994;28;19929;-67
2022/04/07 06:17:42;;;;;;;;;;;14.80;56.40;;;;;;5102089;28;19984;-67
2022/04/07 06:20:10;;;;;;;;;;;14.80;56.40;;;;;;5102067;28;19915;-66
2022/04/07 06:22:36;;;;;;;;;;;14.80;56.40;;;;;;5101938;28;19956;-68
2022/04/07 06:25:02;;;;;;;;;;;14.80;56.40;;;;;;5101972;28;20207;-67
2022/04/07 06:27:37;;;;;;;;;;;14.80;56.40;;;;;;5101922;28;19949;-66
2022/04/07 06:30:09;;;;;;;;;;;14.80;56.40;;;;;;5101869;28;19919;-66
2022/04/07 06:32:34;;;;;;;;;;;14.80;56.40;;;;;;5101789;28;19908;-67
2022/04/07 06:35:06;;;;;;;;;;;14.80;56.40;;;;;;5100906;28;19978;-66
2022/04/07 06:37:31;;;;;;;;;;;14.80;56.40;;;;;;5101756;28;19908;-67
2022/04/07 06:40:01;;;;;;;;;;;14.80;56.40;;;;;;5101627;28;19907;-66
2022/04/07 06:42:26;;;;;;;;;;;14.80;56.40;;;;;;5101621;28;19949;-68
2022/04/07 06:44:55;;;;;;;;;;;14.80;56.40;;;;;;5101479;28;20199;-66
2022/04/07 06:47:22;;;;;;;;;;;14.80;56.40;;;;;;5101398;28;19919;-67
2022/04/07 06:49:51;;;;;;;;;;;14.80;56.40;;;;;;5101446;28;19935;-67
2022/04/07 06:52:17;;;;;;;;;;;14.80;56.40;;;;;;5101432;28;19907;-67
2022/04/07 06:54:43;;;;;;;;;;;14.80;56.40;;;;;;5101334;28;19912;-66
2022/04/07 06:57:09;;;;;;;;;;;14.80;56.40;;;;;;5101251;28;19988;-68
2022/04/07 06:59:34;;;;;;;;;;;14.80;56.40;;;;;;5101306;28;20390;-66
2022/04/07 07:02:00;;;;;;;;;;;14.80;56.30;;;;;;5101301;28;19983;-67
2022/04/07 07:04:25;;;;;;;;;;;14.80;56.30;;;;;;5101182;28;19908;-66
2022/04/07 07:06:51;;;;;;;;;;;14.80;56.30;;;;;;5101191;28;19950;-66
2022/04/07 07:09:17;;;;;;;;;;;14.80;56.30;;;;;;5101130;28;19900;-67
2022/04/07 07:11:42;;;;;;;;;;;14.80;56.40;;;;;;5101051;28;19943;-66
2022/04/07 07:14:08;;;;;;;;;;;14.80;56.30;;;;;;5101004;28;19915;-66
2022/04/07 07:16:33;;;;;;;;;;;14.80;56.40;;;;;;5100931;28;19912;-66
2022/04/07 07:18:59;;;;;;;;;;;14.80;56.40;;;;;;5100878;28;19915;-66
2022/04/07 07:21:25;;;;;;;;;;;14.80;56.20;;;;;;5100827;28;19983;-67
2022/04/07 07:23:50;;;;;;;;;;;14.80;56.30;;;;;;5100837;28;19990;-67
2022/04/07 07:26:16;;;;;;;;;;;14.80;56.30;;;;;;5100742;28;19987;-67
2022/04/07 07:28:41;;;;;;;;;;;14.80;56.40;;;;;;5100722;28;20091;-66
2022/04/07 07:31:07;;;;;;;;;;;14.80;56.30;;;;;;5100605;28;20207;-67
2022/04/07 07:33:32;;;;;;;;;;;14.80;56.40;;;;;;5100717;28;19931;-66
2022/04/07 07:35:58;;;;;;;;;;;14.80;56.40;;;;;;5100512;28;20104;-67
2022/04/07 07:38:24;;;;;;;;;;;14.80;56.40;;;;;;5100582;28;20301;-67
2022/04/07 07:40:52;;;;;;;;;;;14.80;56.30;;;;;;5100517;28;19978;-67
2022/04/07 07:43:18;;;;;;;;;;;14.80;56.30;;;;;;5100562;28;19908;-67
2022/04/07 07:45:43;;;;;;;;;;;14.80;56.30;;;;;;5100266;28;20108;-66
2022/04/07 07:48:09;;;;;;;;;;;14.80;56.30;;;;;;5100412;28;19912;-67
2022/04/07 07:50:37;;;;;;;;;;;14.80;56.40;;;;;;5100427;28;19932;-67
2022/04/07 07:53:02;;;;;;;;;;;14.80;56.40;;;;;;5100349;28;19935;-68
2022/04/07 07:55:28;;;;;;;;;;;14.80;56.40;;;;;;5100235;28;20200;-66
2022/04/07 07:57:53;;;;;;;;;;;14.80;56.40;;;;;;5100301;28;19966;-68
2022/04/07 08:00:19;;;;;;;;;;;14.80;56.40;;;;;;5098952;28;19950;-67
2022/04/07 08:02:45;;;;;;;;;;;14.80;56.40;;;;;;5100521;28;19908;-66
2022/04/07 08:05:11;;;;;;;;;;;14.80;56.40;;;;;;5100251;28;20130;-66
2022/04/07 08:07:40;;;;;;;;;;;14.80;56.40;;;;;;5100127;28;19908;-67
2022/04/07 08:10:06;;;;;;;;;;;14.80;56.50;;;;;;5100146;28;20010;-67
2022/04/07 08:12:32;;;;;;;;;;;14.80;56.50;;;;;;5100053;28;20188;-66
2022/04/07 08:14:57;;;;;;;;;;;14.80;56.50;;;;;;5100057;28;19983;-66
2022/04/07 08:17:23;;;;;;;;;;;14.70;56.50;;;;;;5100033;28;19908;-67
2022/04/07 08:19:48;;;;;;;;;;;14.70;56.60;;;;;;5100035;28;19923;-67
2022/04/07 08:22:14;;;;;;;;;;;14.70;56.60;;;;;;5100034;28;19915;-67
2022/04/07 08:24:40;;;;;;;;;;;14.80;57.10;;;;;;5100044;28;19908;-66
2022/04/07 08:27:06;;;;;;;;;;;14.80;56.50;;;;;;5099991;28;20214;-67
2022/04/07 08:29:32;;;;;;;;;;;14.80;56.40;;;;;;5099969;28;20111;-66
2022/04/07 08:31:57;;;;;;;;;;;14.80;56.50;;;;;;5099963;28;19908;-66
2022/04/07 08:34:25;;;;;;;;;;;14.80;56.50;;;;;;5098571;28;19900;-67
2022/04/07 08:36:51;;;;;;;;;;;14.80;56.40;;;;;;5099864;28;19915;-66
2022/04/07 08:39:17;;;;;;;;;;;14.80;56.40;;;;;;5099891;28;19908;-67
2022/04/07 08:41:44;;;;;;;;;;;14.80;56.40;;;;;;5099847;28;19977;-67
2022/04/07 08:44:09;;;;;;;;;;;14.80;56.40;;;;;;5099903;28;19939;-67
2022/04/07 08:46:35;;;;;;;;;;;14.80;56.40;;;;;;5099605;28;19926;-66
2022/04/07 08:49:02;;;;;;;;;;;14.80;56.40;;;;;;5099853;28;20029;-67
2022/04/07 08:51:28;;;;;;;;;;;14.80;56.40;;;;;;5099799;28;19975;-67
2022/04/07 08:53:53;;;;;;;;;;;14.80;56.60;;;;;;5099725;28;20158;-66
2022/04/07 08:56:19;;;;;;;;;;;14.80;56.40;;;;;;5098385;28;19995;-67
2022/04/07 08:58:44;;;;;;;;;;;14.80;56.50;;;;;;5103011;28;19949;-67
2022/04/07 09:01:10;;;;;;;;;;;14.80;56.60;;;;;;5103584;28;19952;-66
2022/04/07 09:03:36;;;;;;;;;;;14.80;56.50;;;;;;5102183;28;19950;-67
2022/04/07 09:06:02;;;;;;;;;;;14.80;56.50;;;;;;5103446;28;19908;-66
2022/04/07 09:08:29;;;;;;;;;;;14.80;56.60;;;;;;5103498;28;20107;-67
2022/04/07 09:10:55;;;;;;;;;;;14.80;56.50;;;;;;5103320;28;19908;-66
2022/04/07 09:13:20;;;;;;;;;;;14.80;56.50;;;;;;5103418;28;19934;-67
2022/04/07 09:15:47;;;;;;;;;;;14.80;56.60;;;;;;5103263;28;20235;-66
2022/04/07 09:18:12;;;;;;;;;;;14.80;56.60;;;;;;5103176;28;20093;-66
2022/04/07 09:20:41;;;;;;;;;;;14.80;56.50;;;;;;5103199;28;19965;-67
2022/04/07 09:23:11;;;;;;;;;;;14.80;56.60;;;;;;5103188;28;19900;-67
2022/04/07 09:25:40;;;;;;;;;;;14.80;56.60;;;;;;5103190;28;19912;-66
2022/04/07 09:28:09;;;;;;;;;;;14.80;56.60;;;;;;5103256;28;19907;-67
2022/04/07 09:30:38;;;;;;;;;;;14.80;56.60;;;;;;5103072;28;19975;-67
2022/04/07 09:33:03;;;;;;;;;;;14.80;56.60;;;;;;5103143;28;20095;-67
2022/04/07 09:35:31;;;;;;;;;;;14.80;56.70;;;;;;5103011;28;19919;-67
2022/04/07 09:38:00;;;;;;;;;;;14.80;56.70;;;;;;5102969;28;19937;-67
2022/04/07 09:40:26;;;;;;;;;;;14.80;56.70;;;;;;5103022;28;19908;-67
2022/04/07 09:42:58;;;;;;;;;;;14.80;56.70;;;;;;5102889;28;19907;-67
2022/04/07 09:45:24;;;;;;;;;;;14.80;56.70;;;;;;5102909;28;19908;-67
2022/04/07 09:47:50;;;;;;;;;;;14.80;56.60;;;;;;5102707;28;19972;-67
2022/04/07 09:50:42;;;;;;;;;;;14.80;56.60;;;;;;5102906;28;19914;-67
2022/04/07 09:53:09;;;;;;;;;;;14.80;56.60;;;;;;5099582;28;19900;-66
2022/04/07 09:55:36;;;;;;;;;;;14.80;56.60;;;;;;5102673;28;19912;-67
2022/04/07 09:58:06;;;;;;;;;;;14.80;57.20;;;;;;5102687;28;19908;-67
2022/04/07 10:00:32;;;;;;;;;;;14.70;56.60;;;;;;5102679;28;19941;-66
2022/04/07 10:02:58;;;;;;;;;;;14.80;56.70;;;;;;5102583;28;20138;-67
2022/04/07 10:05:24;;;;;;;;;;;14.80;56.70;;;;;;5102595;28;19908;-67
2022/04/07 10:07:51;;;;;;;;;;;14.80;56.60;;;;;;5102542;28;20092;-67
2022/04/07 10:10:18;;;;;;;;;;;14.80;56.60;;;;;;5101265;28;19908;-67
2022/04/07 10:12:47;;;;;;;;;;;14.80;56.60;;;;;;5102542;28;19949;-66
2022/04/07 10:15:13;;;;;;;;;;;14.80;56.60;;;;;;5102221;28;20062;-66
2022/04/07 10:17:39;;;;;;;;;;;14.80;56.50;;;;;;5102146;28;20092;-67
2022/04/07 10:20:09;;;;;;;;;;;14.80;56.60;;;;;;5100830;28;19915;-67
2022/04/07 10:22:34;;;;;;;;;;;14.80;56.60;;;;;;5102032;28;19908;-67
2022/04/07 10:25:04;;;;;;;;;;;14.80;56.50;;;;;;5102123;28;20223;-66
2022/04/07 10:27:30;;;;;;;;;;;14.80;56.50;;;;;;5102088;28;19915;-66
2022/04/07 10:30:08;;;;;;;;;;;14.80;56.50;;;;;;5101878;28;19946;-67
2022/04/07 10:32:34;;;;;;;;;;;14.80;56.50;;;;;;5102029;28;19946;-66
2022/04/07 10:35:07;;;;;;;;;;;14.90;56.50;;;;;;5101824;28;19949;-67
2022/04/07 10:37:42;;;;;;;;;;;14.90;56.50;;;;;;5101841;28;19908;-67
2022/04/07 10:40:26;;;;;;;;;;;14.80;56.40;;;;;;5100383;28;19949;-66
2022/04/07 10:43:07;;;;;;;;;;;14.80;56.30;;;;;;5101748;28;19935;-67
2022/04/07 10:45:36;;;;;;;;;;;14.90;56.40;;;;;;5101756;28;19908;-67
2022/04/07 10:48:20;;;;;;;;;;;14.90;56.40;;;;;;5101479;28;19911;-67
2022/04/07 10:50:47;;;;;;;;;;;14.90;56.40;;;;;;5101414;28;19980;-68
2022/04/07 10:53:20;;;;;;;;;;;14.90;56.30;;;;;;5101554;28;19983;-67
2022/04/07 10:56:05;;;;;;;;;;;14.90;56.30;;;;;;5101368;28;19943;-66
2022/04/07 10:58:44;;;;;;;;;;;14.90;56.30;;;;;;5100928;28;19908;-66
2022/04/07 11:01:14;;;;;;;;;;;14.90;56.40;;;;;;5099929;28;19907;-66
2022/04/07 11:03:41;;;;;;;;;;;14.90;56.40;;;;;;5101284;28;19912;-66
2022/04/07 11:06:07;;;;;;;;;;;14.90;56.50;;;;;;5101193;28;19904;-67
2022/04/07 11:08:33;;;;;;;;;;;14.90;56.50;;;;;;5101150;28;19908;-67
2022/04/07 11:10:59;;;;;;;;;;;14.90;56.50;;;;;;5101056;28;19923;-66
2022/04/07 11:13:43;;;;;;;;;;;14.90;56.50;;;;;;5101080;28;19950;-67
2022/04/07 11:16:14;;;;;;;;;;;14.90;56.40;;;;;;5100899;28;19911;-67
2022/04/07 11:18:50;;;;;;;;;;;15.00;56.50;;;;;;5101034;28;19908;-66
2022/04/07 11:21:16;;;;;;;;;;;14.90;56.40;;;;;;5100615;28;20164;-67
2022/04/07 11:23:43;;;;;;;;;;;15.00;56.50;;;;;;5100792;28;19922;-67
2022/04/07 11:26:10;;;;;;;;;;;15.00;56.50;;;;;;5100828;28;19952;-67
2022/04/07 11:28:37;;;;;;;;;;;14.90;56.50;;;;;;5100730;28;19963;-67
2022/04/07 11:31:04;;;;;;;;;;;14.90;56.50;;;;;;5100715;28;20200;-67
2022/04/07 11:33:35;;;;;;;;;;;15.00;56.60;;;;;;5100738;28;19912;-66
2022/04/07 11:36:00;;;;;;;;;;;15.00;56.50;;;;;;5100509;28;20003;-65
2022/04/07 11:38:26;;;;;;;;;;;15.00;56.50;;;;;;5100629;28;19908;-68
2022/04/07 11:41:05;;;;;;;;;;;15.00;56.50;;;;;;5100722;28;20184;-67
2022/04/07 11:43:32;;;;;;;;;;;15.00;56.50;;;;;;5100615;28;19919;-67
2022/04/07 11:45:58;;;;;;;;;;;15.00;56.50;;;;;;5100210;28;19957;-64
2022/04/07 11:48:24;;;;;;;;;;;15.00;56.50;;;;;;5099312;28;19912;-66
2022/04/07 11:50:50;;;;;;;;;;;15.00;56.50;;;;;;5100442;28;19908;-66
2022/04/07 11:53:16;;;;;;;;;;;15.00;56.50;;;;;;5100371;28;19914;-66
2022/04/07 11:55:42;;;;;;;;;;;15.00;56.50;;;;;;5100422;28;19903;-66
2022/04/07 11:58:10;;;;;;;;;;;15.00;56.40;;;;;;5100440;28;19908;-67
2022/04/07 12:00:36;;;;;;;;;;;15.00;56.40;;;;;;5100426;28;19908;-67
2022/04/07 12:03:03;;;;;;;;;;;15.00;56.50;;;;;;5100363;28;20115;-66
2022/04/07 12:05:30;;;;;;;;;;;15.00;56.50;;;;;;5100251;28;19908;-67
2022/04/07 12:08:11;;;;;;;;;;;15.00;56.50;;;;;;5100170;28;19915;-66
2022/04/07 12:10:38;;;;;;;;;;;15.00;56.50;;;;;;5100236;28;19942;-66
2022/04/07 12:13:04;;;;;;;;;;;15.00;56.50;;;;;;5100149;28;20140;-66
2022/04/07 12:15:30;;;;;;;;;;;15.00;56.50;;;;;;5100416;28;19919;-67
2022/04/07 12:18:03;;;;;;;;;;;15.10;56.50;;;;;;5100155;28;20116;-67
2022/04/07 12:20:29;;;;;;;;;;;15.10;56.40;;;;;;5100094;28;20013;-67
2022/04/07 12:23:04;;;;;;;;;;;15.20;56.40;;;;;;5100104;28;19912;-66
2022/04/07 12:25:33;;;;;;;;;;;15.20;56.30;;;;;;5100076;28;20239;-67
2022/04/07 12:28:12;;;;;;;;;;;15.20;56.20;;;;;;5099982;28;19989;-67
2022/04/07 12:30:42;;;;;;;;;;;15.20;56.80;;;;;;5100071;28;19908;-67
2022/04/07 12:33:08;;;;;;;;;;;15.20;56.20;;;;;;5102478;28;20215;-66
2022/04/07 12:35:46;;;;;;;;;;;15.20;56.20;;;;;;5104005;28;19975;-67
2022/04/07 12:38:12;;;;;;;;;;;15.20;56.20;;;;;;5104059;28;20163;-67
2022/04/07 12:40:38;;;;;;;;;;;15.30;56.20;;;;;;5104094;28;19915;-67
2022/04/07 12:43:04;;;;;;;;;;;15.20;56.20;;;;;;5103974;28;19907;-66
2022/04/07 12:45:30;;;;;;;;;;;15.30;56.30;;;;;;5104009;28;20115;-66
2022/04/07 12:48:05;;;;;;;;;;;15.30;56.30;;;;;;5102432;28;19923;-67
2022/04/07 12:50:32;;;;;;;;;;;15.30;56.20;;;;;;5103886;28;20002;-67
2022/04/07 12:52:58;;;;;;;;;;;15.30;56.30;;;;;;5103796;28;19908;-67
2022/04/07 12:55:31;;;;;;;;;;;15.30;56.30;;;;;;5103750;28;19996;-67
2022/04/07 12:57:57;;;;;;;;;;;15.30;56.30;;;;;;5103911;28;19915;-66
2022/04/07 13:00:23;;;;;;;;;;;15.30;56.30;;;;;;5103842;28;19908;-67
2022/04/07 13:02:49;;;;;;;;;;;15.30;56.40;;;;;;5103568;28;19908;-66
2022/04/07 13:05:24;;;;;;;;;;;15.20;56.50;;;;;;5103595;28;19908;-67
2022/04/07 13:07:51;;;;;;;;;;;15.20;56.50;;;;;;5103567;28;19908;-67
2022/04/07 13:10:16;;;;;;;;;;;15.30;56.50;;;;;;5103440;28;20170;-67
2022/04/07 13:12:44;;;;;;;;;;;15.30;56.50;;;;;;5103454;28;20176;-66
2022/04/07 13:15:10;;;;;;;;;;;15.30;56.40;;;;;;5103437;28;19975;-67
2022/04/07 13:17:36;;;;;;;;;;;15.40;56.30;;;;;;5103298;28;19908;-67
2022/04/07 13:20:02;;;;;;;;;;;15.40;56.30;;;;;;5103227;28;19975;-67
2022/04/07 13:22:29;;;;;;;;;;;15.40;56.30;;;;;;5103004;28;19915;-66
2022/04/07 13:24:54;;;;;;;;;;;15.40;56.30;;;;;;5103169;28;19970;-67
2022/04/07 13:27:20;;;;;;;;;;;15.40;56.20;;;;;;5103135;28;19915;-68
2022/04/07 13:29:45;;;;;;;;;;;15.40;56.30;;;;;;5103057;28;19908;-67
2022/04/07 13:32:11;;;;;;;;;;;15.40;56.30;;;;;;5103034;28;19949;-67
2022/04/07 13:34:37;;;;;;;;;;;15.40;56.30;;;;;;5102915;28;19907;-67
2022/04/07 13:37:04;;;;;;;;;;;15.40;56.30;;;;;;5102818;28;19912;-66
2022/04/07 13:39:30;;;;;;;;;;;15.50;56.30;;;;;;5102860;28;20210;-67
2022/04/07 13:41:55;;;;;;;;;;;15.50;56.30;;;;;;5102815;28;20107;-67
2022/04/07 13:44:21;;;;;;;;;;;15.50;56.30;;;;;;5102605;28;19946;-67
2022/04/07 13:46:47;;;;;;;;;;;15.50;56.20;;;;;;5102491;28;19912;-66
2022/04/07 13:49:16;;;;;;;;;;;15.50;56.20;;;;;;5102808;28;19908;-66
2022/04/07 13:51:42;;;;;;;;;;;15.50;56.20;;;;;;5102675;28;20229;-67
2022/04/07 13:54:08;;;;;;;;;;;15.50;56.10;;;;;;5102580;28;19908;-66
2022/04/07 13:56:33;;;;;;;;;;;15.60;56.20;;;;;;5102484;28;19912;-66
2022/04/07 13:58:59;;;;;;;;;;;15.60;56.20;;;;;;5102499;28;19908;-67
2022/04/07 14:01:25;;;;;;;;;;;15.60;56.10;;;;;;5102375;28;20195;-67
2022/04/07 14:03:53;;;;;;;;;;;15.70;56.10;;;;;;5102416;28;19908;-67
2022/04/07 14:06:19;;;;;;;;;;;15.70;56.00;;;;;;5102580;28;19904;-66
2022/04/07 14:08:45;;;;;;;;;;;15.70;56.10;;;;;;5102443;28;19987;-67
2022/04/07 14:11:12;;;;;;;;;;;15.70;56.00;;;;;;5102336;28;19908;-67
2022/04/07 14:13:38;;;;;;;;;;;15.70;56.00;;;;;;5102407;28;20172;-67
2022/04/07 14:16:04;;;;;;;;;;;15.80;56.00;;;;;;5102037;28;20222;-67